sensor_id;sensor_type;location;lat;lon;timestamp;pressure;altitude;pressure_sealevel;temperature;humidity
36138;BME280;67787;50.074;21.904;2023-04-06T16:57:21;98950.50;;;0.48;74.45
36138;BME280;67787;50.074;21.904;2023-04-06T16:59:59;98947.46;;;0.45;74.94
36138;BME280;67787;50.074;21.904;2023-04-06T17:02:27;98951.34;;;0.44;74.38
36138;BME280;67787;50.074;21.904;2023-04-06T17:04:56;98945.61;;;0.43;74.90
36138;BME280;67787;50.074;21.904;2023-04-06T17:07:23;98946.43;;;0.39;75.28
36138;BME280;67787;50.074;21.904;2023-04-06T17:09:59;98945.05;;;0.34;76.99
36138;BME280;67787;50.074;21.904;2023-04-06T17:12:28;98938.23;;;0.29;76.98
36138;BME280;67787;50.074;21.904;2023-04-06T17:14:56;98943.84;;;0.27;76.63
36138;BME280;67787;50.074;21.904;2023-04-06T17:17:24;98949.88;;;0.24;76.59
36138;BME280;67787;50.074;21.904;2023-04-06T17:19:51;98949.03;;;0.23;76.22
36138;BME280;67787;50.074;21.904;2023-04-06T17:22:20;98944.91;;;0.22;76.32
36138;BME280;67787;50.074;21.904;2023-04-06T17:24:48;98946.88;;;0.20;76.48
36138;BME280;67787;50.074;21.904;2023-04-06T17:27:16;98944.59;;;0.21;76.46
36138;BME280;67787;50.074;21.904;2023-04-06T17:29:44;98942.38;;;0.19;76.26
36138;BME280;67787;50.074;21.904;2023-04-06T17:32:12;98938.22;;;0.18;76.24
36138;BME280;67787;50.074;21.904;2023-04-06T17:34:40;98941.74;;;0.17;76.36
36138;BME280;67787;50.074;21.904;2023-04-06T17:37:08;98940.52;;;0.18;75.99
36138;BME280;67787;50.074;21.904;2023-04-06T17:39:36;98940.64;;;0.19;75.86
36138;BME280;67787;50.074;21.904;2023-04-06T17:42:04;98936.73;;;0.21;75.78
36138;BME280;67787;50.074;21.904;2023-04-06T17:44:31;98937.27;;;0.21;76.35
36138;BME280;67787;50.074;21.904;2023-04-06T17:47:00;98938.84;;;0.21;75.93
36138;BME280;67787;50.074;21.904;2023-04-06T17:49:30;98940.45;;;0.20;76.69
36138;BME280;67787;50.074;21.904;2023-04-06T17:51:58;98939.26;;;0.19;76.01
36138;BME280;67787;50.074;21.904;2023-04-06T17:54:26;98940.23;;;0.21;75.75
36138;BME280;67787;50.074;21.904;2023-04-06T17:57:03;98939.49;;;0.22;75.80
36138;BME280;67787;50.074;21.904;2023-04-06T17:59:34;98941.23;;;0.22;75.88
36138;BME280;67787;50.074;21.904;2023-04-06T18:02:02;98934.48;;;0.21;76.21
36138;BME280;67787;50.074;21.904;2023-04-06T18:04:31;98943.48;;;0.22;76.20
36138;BME280;67787;50.074;21.904;2023-04-06T18:06:59;98942.77;;;0.23;76.37
36138;BME280;67787;50.074;21.904;2023-04-06T18:09:30;98940.88;;;0.22;75.75
36138;BME280;67787;50.074;21.904;2023-04-06T18:11:58;98942.80;;;0.22;76.21
36138;BME280;67787;50.074;21.904;2023-04-06T18:14:26;98942.98;;;0.22;76.58
36138;BME280;67787;50.074;21.904;2023-04-06T18:16:54;98939.87;;;0.21;76.30
36138;BME280;67787;50.074;21.904;2023-04-06T18:19:23;98943.23;;;0.20;76.34
36138;BME280;67787;50.074;21.904;2023-04-06T18:21:50;98939.76;;;0.19;76.58
36138;BME280;67787;50.074;21.904;2023-04-06T18:24:18;98936.95;;;0.20;76.45
36138;BME280;67787;50.074;21.904;2023-04-06T18:27:06;98935.20;;;0.20;76.52
36138;BME280;67787;50.074;21.904;2023-04-06T18:29:34;98930.89;;;0.18;76.23
36138;BME280;67787;50.074;21.904;2023-04-06T18:32:04;98936.96;;;0.20;76.31
36138;BME280;67787;50.074;21.904;2023-04-06T18:34:33;98930.16;;;0.20;76.97
36138;BME280;67787;50.074;21.904;2023-04-06T18:37:00;98931.54;;;0.20;76.64
36138;BME280;67787;50.074;21.904;2023-04-06T18:39:29;98932.05;;;0.20;76.76
36138;BME280;67787;50.074;21.904;2023-04-06T18:41:57;98932.21;;;0.21;76.74
36138;BME280;67787;50.074;21.904;2023-04-06T18:44:25;98926.98;;;0.21;76.71
36138;BME280;67787;50.074;21.904;2023-04-06T18:46:53;98927.23;;;0.23;75.81
36138;BME280;67787;50.074;21.904;2023-04-06T18:49:22;98931.39;;;0.24;76.60
36138;BME280;67787;50.074;21.904;2023-04-06T18:51:50;98929.45;;;0.25;76.50
36138;BME280;67787;50.074;21.904;2023-04-06T18:54:18;98931.52;;;0.26;76.46
36138;BME280;67787;50.074;21.904;2023-04-06T18:56:47;98933.25;;;0.26;76.25
36138;BME280;67787;50.074;21.904;2023-04-06T18:59:15;98925.89;;;0.27;76.28
36138;BME280;67787;50.074;21.904;2023-04-06T19:01:44;98922.92;;;0.27;76.06
36138;BME280;67787;50.074;21.904;2023-04-06T19:04:18;98924.50;;;0.27;77.49
36138;BME280;67787;50.074;21.904;2023-04-06T19:06:47;98926.44;;;0.26;76.75
36138;BME280;67787;50.074;21.904;2023-04-06T19:09:14;98921.73;;;0.26;76.38
36138;BME280;67787;50.074;21.904;2023-04-06T19:11:42;98918.39;;;0.27;75.97
36138;BME280;67787;50.074;21.904;2023-04-06T19:14:10;98922.88;;;0.29;76.32
36138;BME280;67787;50.074;21.904;2023-04-06T19:16:41;98923.91;;;0.29;76.22
36138;BME280;67787;50.074;21.904;2023-04-06T19:19:10;98923.20;;;0.29;76.13
36138;BME280;67787;50.074;21.904;2023-04-06T19:21:38;98924.58;;;0.29;76.58
36138;BME280;67787;50.074;21.904;2023-04-06T19:24:05;98919.37;;;0.29;77.03
36138;BME280;67787;50.074;21.904;2023-04-06T19:26:34;98912.05;;;0.29;76.67
36138;BME280;67787;50.074;21.904;2023-04-06T19:29:02;98911.48;;;0.30;76.20
36138;BME280;67787;50.074;21.904;2023-04-06T19:31:30;98910.97;;;0.30;76.37
36138;BME280;67787;50.074;21.904;2023-04-06T19:33:59;98911.66;;;0.31;76.36
36138;BME280;67787;50.074;21.904;2023-04-06T19:36:26;98910.27;;;0.30;76.53
36138;BME280;67787;50.074;21.904;2023-04-06T19:38:55;98908.85;;;0.31;76.51
36138;BME280;67787;50.074;21.904;2023-04-06T19:41:23;98911.30;;;0.31;77.31
36138;BME280;67787;50.074;21.904;2023-04-06T19:43:52;98906.08;;;0.30;76.60
36138;BME280;67787;50.074;21.904;2023-04-06T19:46:20;98905.05;;;0.30;76.72
36138;BME280;67787;50.074;21.904;2023-04-06T19:48:48;98898.95;;;0.29;76.50
36138;BME280;67787;50.074;21.904;2023-04-06T19:51:16;98902.59;;;0.31;76.53
36138;BME280;67787;50.074;21.904;2023-04-06T19:53:44;98904.18;;;0.30;76.89
36138;BME280;67787;50.074;21.904;2023-04-06T19:56:13;98901.05;;;0.30;76.41
36138;BME280;67787;50.074;21.904;2023-04-06T19:58:42;98899.96;;;0.31;76.22
36138;BME280;67787;50.074;21.904;2023-04-06T20:01:10;98899.77;;;0.32;76.25
36138;BME280;67787;50.074;21.904;2023-04-06T20:03:38;98901.67;;;0.32;76.77
36138;BME280;67787;50.074;21.904;2023-04-06T20:06:07;98904.27;;;0.32;76.68
36138;BME280;67787;50.074;21.904;2023-04-06T20:08:35;98910.02;;;0.33;76.77
36138;BME280;67787;50.074;21.904;2023-04-06T20:11:04;98901.99;;;0.33;76.61
36138;BME280;67787;50.074;21.904;2023-04-06T20:13:35;98901.49;;;0.32;76.71
36138;BME280;67787;50.074;21.904;2023-04-06T20:16:06;98895.04;;;0.32;76.74
36138;BME280;67787;50.074;21.904;2023-04-06T20:18:36;98895.05;;;0.32;76.95
36138;BME280;67787;50.074;21.904;2023-04-06T20:21:10;98894.88;;;0.32;76.98
36138;BME280;67787;50.074;21.904;2023-04-06T20:23:38;98892.25;;;0.32;76.97
36138;BME280;67787;50.074;21.904;2023-04-06T20:26:09;98891.52;;;0.33;76.38
36138;BME280;67787;50.074;21.904;2023-04-06T20:28:38;98893.41;;;0.34;76.85
36138;BME280;67787;50.074;21.904;2023-04-06T20:31:06;98891.88;;;0.33;77.02
36138;BME280;67787;50.074;21.904;2023-04-06T20:33:34;98892.23;;;0.33;76.53
36138;BME280;67787;50.074;21.904;2023-04-06T20:36:04;98888.21;;;0.33;77.17
36138;BME280;67787;50.074;21.904;2023-04-06T20:38:34;98880.68;;;0.34;77.17
36138;BME280;67787;50.074;21.904;2023-04-06T20:41:02;98878.92;;;0.34;76.29
36138;BME280;67787;50.074;21.904;2023-04-06T20:43:30;98874.92;;;0.34;76.81
36138;BME280;67787;50.074;21.904;2023-04-06T20:45:58;98877.52;;;0.34;76.78
36138;BME280;67787;50.074;21.904;2023-04-06T20:48:49;98883.09;;;0.35;77.25
36138;BME280;67787;50.074;21.904;2023-04-06T20:51:21;98880.46;;;0.35;76.95
36138;BME280;67787;50.074;21.904;2023-04-06T20:53:55;98873.13;;;0.35;77.09
36138;BME280;67787;50.074;21.904;2023-04-06T20:56:23;98872.09;;;0.35;77.03
36138;BME280;67787;50.074;21.904;2023-04-06T20:58:57;98871.17;;;0.36;76.44
36138;BME280;67787;50.074;21.904;2023-04-06T21:01:33;98870.56;;;0.39;76.56
36138;BME280;67787;50.074;21.904;2023-04-06T21:04:05;98872.42;;;0.41;76.74
36138;BME280;67787;50.074;21.904;2023-04-06T21:06:35;98872.76;;;0.41;76.88
36138;BME280;67787;50.074;21.904;2023-04-06T21:09:06;98873.59;;;0.42;76.42
36138;BME280;67787;50.074;21.904;2023-04-06T21:11:35;98874.58;;;0.44;76.66
36138;BME280;67787;50.074;21.904;2023-04-06T21:14:05;98874.58;;;0.44;76.43
36138;BME280;67787;50.074;21.904;2023-04-06T21:16:43;98879.98;;;0.44;77.00
36138;BME280;67787;50.074;21.904;2023-04-06T21:19:11;98882.20;;;0.45;76.66
36138;BME280;67787;50.074;21.904;2023-04-06T21:21:39;98881.29;;;0.46;76.66
36138;BME280;67787;50.074;21.904;2023-04-06T21:24:07;98879.75;;;0.46;76.69
36138;BME280;67787;50.074;21.904;2023-04-06T21:26:37;98880.08;;;0.46;76.75
36138;BME280;67787;50.074;21.904;2023-04-06T21:29:05;98877.52;;;0.45;76.91
36138;BME280;67787;50.074;21.904;2023-04-06T21:31:32;98882.59;;;0.44;76.63
36138;BME280;67787;50.074;21.904;2023-04-06T21:34:07;98879.45;;;0.44;76.41
36138;BME280;67787;50.074;21.904;2023-04-06T21:36:35;98875.48;;;0.42;76.89
36138;BME280;67787;50.074;21.904;2023-04-06T21:39:04;98873.98;;;0.41;77.03
36138;BME280;67787;50.074;21.904;2023-04-06T21:41:32;98879.78;;;0.40;76.81
36138;BME280;67787;50.074;21.904;2023-04-06T21:44:00;98872.30;;;0.39;76.75
36138;BME280;67787;50.074;21.904;2023-04-06T21:46:28;98869.54;;;0.38;77.22
36138;BME280;67787;50.074;21.904;2023-04-06T21:48:57;98869.23;;;0.37;76.95
36138;BME280;67787;50.074;21.904;2023-04-06T21:51:25;98865.23;;;0.36;77.26
36138;BME280;67787;50.074;21.904;2023-04-06T21:53:53;98863.52;;;0.36;76.74
36138;BME280;67787;50.074;21.904;2023-04-06T21:56:23;98855.65;;;0.36;77.05
36138;BME280;67787;50.074;21.904;2023-04-06T21:58:51;98858.08;;;0.37;76.92
36138;BME280;67787;50.074;21.904;2023-04-06T22:01:20;98856.50;;;0.37;77.20
36138;BME280;67787;50.074;21.904;2023-04-06T22:03:48;98857.23;;;0.36;77.47
36138;BME280;67787;50.074;21.904;2023-04-06T22:06:16;98853.27;;;0.35;77.52
36138;BME280;67787;50.074;21.904;2023-04-06T22:08:44;98853.80;;;0.34;77.12
36138;BME280;67787;50.074;21.904;2023-04-06T22:11:15;98849.23;;;0.35;76.99
36138;BME280;67787;50.074;21.904;2023-04-06T22:13:45;98850.64;;;0.35;77.19
36138;BME280;67787;50.074;21.904;2023-04-06T22:16:13;98847.85;;;0.35;76.96
36138;BME280;67787;50.074;21.904;2023-04-06T22:18:42;98851.52;;;0.35;77.05
36138;BME280;67787;50.074;21.904;2023-04-06T22:21:09;98845.75;;;0.35;76.96
36138;BME280;67787;50.074;21.904;2023-04-06T22:23:37;98842.60;;;0.35;76.79
36138;BME280;67787;50.074;21.904;2023-04-06T22:26:10;98840.80;;;0.37;76.89
36138;BME280;67787;50.074;21.904;2023-04-06T22:28:38;98838.52;;;0.37;77.03
36138;BME280;67787;50.074;21.904;2023-04-06T22:31:06;98833.63;;;0.37;77.21
36138;BME280;67787;50.074;21.904;2023-04-06T22:33:33;98831.72;;;0.37;77.38
36138;BME280;67787;50.074;21.904;2023-04-06T22:36:01;98828.77;;;0.37;76.93
36138;BME280;67787;50.074;21.904;2023-04-06T22:38:29;98829.83;;;0.36;77.29
36138;BME280;67787;50.074;21.904;2023-04-06T22:40:58;98831.58;;;0.36;76.78
36138;BME280;67787;50.074;21.904;2023-04-06T22:43:26;98834.83;;;0.38;76.56
36138;BME280;67787;50.074;21.904;2023-04-06T22:45:54;98833.57;;;0.39;76.88
36138;BME280;67787;50.074;21.904;2023-04-06T22:48:21;98829.06;;;0.38;77.06
36138;BME280;67787;50.074;21.904;2023-04-06T22:50:49;98829.42;;;0.38;76.97
36138;BME280;67787;50.074;21.904;2023-04-06T22:53:17;98829.64;;;0.37;77.64
36138;BME280;67787;50.074;21.904;2023-04-06T22:56:04;98832.96;;;0.37;76.92
36138;BME280;67787;50.074;21.904;2023-04-06T22:58:32;98845.36;;;0.36;77.16
36138;BME280;67787;50.074;21.904;2023-04-06T23:01:00;98855.27;;;0.37;76.91
36138;BME280;67787;50.074;21.904;2023-04-06T23:03:28;98852.06;;;0.39;77.01
36138;BME280;67787;50.074;21.904;2023-04-06T23:05:56;98848.55;;;0.40;77.19
36138;BME280;67787;50.074;21.904;2023-04-06T23:08:24;98842.01;;;0.42;76.71
36138;BME280;67787;50.074;21.904;2023-04-06T23:10:52;98840.20;;;0.44;76.65
36138;BME280;67787;50.074;21.904;2023-04-06T23:13:20;98838.05;;;0.46;76.73
36138;BME280;67787;50.074;21.904;2023-04-06T23:15:48;98835.80;;;0.45;77.14
36138;BME280;67787;50.074;21.904;2023-04-06T23:18:16;98832.89;;;0.43;76.87
36138;BME280;67787;50.074;21.904;2023-04-06T23:20:44;98826.62;;;0.43;76.75
36138;BME280;67787;50.074;21.904;2023-04-06T23:23:12;98820.56;;;0.42;77.88
36138;BME280;67787;50.074;21.904;2023-04-06T23:25:40;98806.90;;;0.39;77.11
36138;BME280;67787;50.074;21.904;2023-04-06T23:28:08;98803.45;;;0.37;77.69
36138;BME280;67787;50.074;21.904;2023-04-06T23:30:36;98806.52;;;0.35;77.97
36138;BME280;67787;50.074;21.904;2023-04-06T23:33:03;98809.56;;;0.32;77.56
36138;BME280;67787;50.074;21.904;2023-04-06T23:35:32;98814.13;;;0.32;77.30
36138;BME280;67787;50.074;21.904;2023-04-06T23:37:59;98820.03;;;0.32;77.31
36138;BME280;67787;50.074;21.904;2023-04-06T23:40:27;98828.73;;;0.33;77.37
36138;BME280;67787;50.074;21.904;2023-04-06T23:42:55;98826.45;;;0.33;77.71
36138;BME280;67787;50.074;21.904;2023-04-06T23:45:23;98821.90;;;0.34;77.57
36138;BME280;67787;50.074;21.904;2023-04-06T23:47:51;98821.59;;;0.33;77.59
36138;BME280;67787;50.074;21.904;2023-04-06T23:50:19;98819.01;;;0.32;77.83
36138;BME280;67787;50.074;21.904;2023-04-06T23:52:47;98812.92;;;0.31;77.33
36138;BME280;67787;50.074;21.904;2023-04-06T23:55:15;98803.19;;;0.30;77.85
36138;BME280;67787;50.074;21.904;2023-04-06T23:57:43;98803.05;;;0.29;77.94
